createdAt,value
2022-11-06T00:00:00.613Z,15
2022-11-06T00:02:00.651Z,14
2022-11-06T00:03:00.675Z,15
2022-11-06T00:05:00.628Z,16
2022-11-06T00:06:00.591Z,17
2022-11-06T00:07:00.585Z,18
2022-11-06T00:08:00.586Z,17
2022-11-06T00:09:00.589Z,18
2022-11-06T00:11:00.583Z,17
2022-11-06T00:12:00.586Z,15
2022-11-06T00:15:01.101Z,16
2022-11-06T00:17:00.588Z,17
2022-11-06T00:18:00.588Z,18
2022-11-06T00:19:00.587Z,17
2022-11-06T00:20:00.629Z,16
2022-11-06T00:21:00.587Z,17
2022-11-06T00:25:00.747Z,18
2022-11-06T00:26:00.582Z,17
2022-11-06T00:27:00.583Z,18
2022-11-06T00:28:00.583Z,15
2022-11-06T00:30:00.625Z,15
2022-11-06T00:31:00.609Z,16
2022-11-06T00:33:00.711Z,17
2022-11-06T00:34:00.582Z,19
2022-11-06T00:35:00.624Z,18
2022-11-06T00:37:00.581Z,17
2022-11-06T00:39:00.585Z,16
2022-11-06T00:45:00.625Z,15
2022-11-06T00:48:00.611Z,16
2022-11-06T00:49:00.584Z,17
2022-11-06T00:51:00.585Z,16
2022-11-06T00:52:00.585Z,18
2022-11-06T00:53:00.586Z,16
2022-11-06T00:54:00.588Z,17
2022-11-06T00:55:00.630Z,18
2022-11-06T00:56:00.587Z,19
2022-11-06T00:57:00.586Z,17
2022-11-06T00:59:00.589Z,16
2022-11-06T01:00:00.615Z,15
2022-11-06T01:05:00.815Z,14
2022-11-06T01:06:00.594Z,15
2022-11-06T01:07:00.590Z,16
2022-11-06T01:12:15.886Z,17
2022-11-06T01:15:00.604Z,17
2022-11-06T01:16:00.594Z,16
2022-11-06T01:19:00.595Z,15
2022-11-06T01:20:00.623Z,17
2022-11-06T01:21:00.681Z,18
2022-11-06T01:22:00.598Z,17
2022-11-06T01:23:00.598Z,18
2022-11-06T01:24:00.600Z,17
2022-11-06T01:25:00.703Z,16
2022-11-06T01:26:00.599Z,14
2022-11-06T01:52:01.018Z,13
2022-11-06T01:53:00.898Z,14
2022-11-06T01:54:00.860Z,16
2022-11-06T01:55:00.895Z,17
2022-11-06T01:58:00.860Z,19
2022-11-06T01:59:00.860Z,18
2022-11-06T02:00:00.894Z,18
2022-11-06T02:02:00.959Z,19
2022-11-06T02:03:00.974Z,17
2022-11-06T02:04:00.859Z,16
2022-11-06T02:05:00.908Z,14
2022-11-06T02:06:00.860Z,15
2022-11-06T02:07:00.860Z,14
2022-11-06T02:09:00.882Z,16
2022-11-06T02:11:00.862Z,17
2022-11-06T02:12:00.862Z,15
2022-11-06T02:15:01.031Z,17
2022-11-06T02:16:00.855Z,15
2022-11-06T02:17:00.861Z,16
2022-11-06T02:18:00.860Z,17
2022-11-06T02:19:00.864Z,15
2022-11-06T02:20:01.105Z,16
2022-11-06T02:21:00.861Z,19
2022-11-06T02:22:00.862Z,18
2022-11-06T02:23:00.862Z,19
2022-11-06T02:24:00.862Z,21
2022-11-06T02:25:00.887Z,19
2022-11-06T02:26:00.861Z,18
2022-11-06T02:29:00.862Z,16
2022-11-06T02:30:00.907Z,17
2022-11-06T02:31:00.863Z,16
2022-11-06T02:34:00.928Z,18
2022-11-06T02:37:00.858Z,19
2022-11-06T02:38:00.929Z,18
2022-11-06T02:39:00.865Z,16
2022-11-06T02:40:00.983Z,17
2022-11-06T02:41:00.960Z,19
2022-11-06T02:42:00.864Z,17
2022-11-06T02:43:00.864Z,18
2022-11-06T02:45:00.909Z,18
2022-11-06T02:46:00.863Z,16
2022-11-06T02:47:00.865Z,19
2022-11-06T02:48:00.865Z,18
2022-11-06T02:52:00.879Z,17
2022-11-06T02:53:00.869Z,16
2022-11-06T02:54:00.866Z,15
2022-11-06T02:57:01.042Z,14
2022-11-06T02:58:00.869Z,17
2022-11-06T02:59:00.877Z,19
2022-11-06T03:00:00.915Z,19
2022-11-06T03:01:00.869Z,17
2022-11-06T03:02:01.033Z,16
2022-11-06T03:03:00.966Z,15
2022-11-06T03:04:00.866Z,13
2022-11-06T03:05:00.896Z,14
2022-11-06T03:06:00.867Z,17
2022-11-06T03:07:00.881Z,16
2022-11-06T03:08:00.880Z,17
2022-11-06T03:10:00.900Z,18
2022-11-06T03:11:00.871Z,17
2022-11-06T03:13:01.025Z,15
2022-11-06T03:14:00.869Z,16
2022-11-06T03:15:00.900Z,16
2022-11-06T03:16:00.873Z,15
2022-11-06T03:17:00.872Z,17
2022-11-06T03:18:00.879Z,18
2022-11-06T03:20:01.105Z,17
2022-11-06T03:21:00.919Z,18
2022-11-06T03:22:00.866Z,17
2022-11-06T03:23:00.872Z,18
2022-11-06T03:24:00.871Z,19
2022-11-06T03:25:00.871Z,20
2022-11-06T03:26:00.876Z,18
2022-11-06T03:28:00.872Z,19
2022-11-06T03:30:00.896Z,18
2022-11-06T03:32:00.872Z,16
2022-11-06T03:33:00.872Z,17
2022-11-06T03:34:00.869Z,16
2022-11-06T03:35:00.917Z,17
2022-11-06T03:36:00.874Z,19
2022-11-06T03:39:00.872Z,18
2022-11-06T03:40:00.911Z,17
2022-11-06T03:41:00.873Z,15
2022-11-06T03:42:00.874Z,18
2022-11-06T03:45:00.974Z,18
2022-11-06T03:46:00.892Z,20
2022-11-06T03:47:00.876Z,17
2022-11-06T03:49:00.871Z,18
2022-11-06T03:50:00.911Z,19
2022-11-06T03:53:00.939Z,17
2022-11-06T03:54:00.876Z,16
2022-11-06T03:55:00.906Z,17
2022-11-06T03:56:00.874Z,15
2022-11-06T03:57:00.875Z,16
2022-11-06T03:58:00.871Z,17
2022-11-06T03:59:00.890Z,16
2022-11-06T04:00:00.910Z,17
2022-11-06T04:01:00.874Z,18
2022-11-06T04:04:00.901Z,19
2022-11-06T04:05:00.904Z,18
2022-11-06T04:07:00.875Z,17
2022-11-06T04:08:00.875Z,16
2022-11-06T04:09:00.873Z,18
2022-11-06T04:12:00.876Z,17
2022-11-06T04:13:00.876Z,18
2022-11-06T04:15:00.904Z,18
2022-11-06T04:16:00.875Z,17
2022-11-06T04:17:00.875Z,18
2022-11-06T04:19:00.877Z,17
2022-11-06T04:20:01.311Z,19
2022-11-06T04:21:00.876Z,18
2022-11-06T04:25:00.940Z,17
2022-11-06T04:26:00.879Z,18
2022-11-06T04:29:00.879Z,16
2022-11-06T04:30:00.882Z,16
2022-11-06T04:31:00.884Z,17
2022-11-06T04:33:01.008Z,18
2022-11-06T04:35:00.881Z,19
2022-11-06T04:36:00.935Z,18
2022-11-06T04:38:00.880Z,19
2022-11-06T04:40:00.882Z,18
2022-11-06T04:41:00.909Z,16
2022-11-06T04:42:00.885Z,15
2022-11-06T04:43:00.880Z,13
2022-11-06T04:45:00.884Z,13
2022-11-06T04:46:00.910Z,14
2022-11-06T04:47:00.883Z,15
2022-11-06T04:49:00.882Z,19
2022-11-06T04:50:00.882Z,20
2022-11-06T04:54:01.066Z,17
2022-11-06T04:55:00.887Z,18
2022-11-06T04:57:00.908Z,19
2022-11-06T04:58:00.882Z,18
2022-11-06T05:00:00.881Z,16
2022-11-06T05:02:00.961Z,13
2022-11-06T05:03:00.883Z,14
2022-11-06T05:04:00.884Z,13
2022-11-06T05:06:00.885Z,14
2022-11-06T05:07:00.922Z,16
2022-11-06T05:08:00.887Z,15
2022-11-06T05:09:00.886Z,19
2022-11-06T05:10:00.912Z,20
2022-11-06T05:11:00.887Z,19
2022-11-06T05:12:00.919Z,18
2022-11-06T05:13:00.887Z,17
2022-11-06T05:14:00.885Z,15
2022-11-06T05:15:00.889Z,15
2022-11-06T05:17:00.915Z,14
2022-11-06T05:21:00.888Z,13
2022-11-06T05:22:01.301Z,14
2022-11-06T05:23:01.081Z,15
2022-11-06T05:24:00.886Z,17
2022-11-06T05:26:00.979Z,18
2022-11-06T05:29:01.018Z,16
2022-11-06T05:30:00.953Z,17
2022-11-06T05:32:00.955Z,18
2022-11-06T05:33:00.910Z,17
2022-11-06T05:35:00.888Z,16
2022-11-06T05:36:00.889Z,15
2022-11-06T05:37:00.889Z,17
2022-11-06T05:38:00.917Z,18
2022-11-06T05:39:00.891Z,19
2022-11-06T05:42:00.999Z,17
2022-11-06T05:43:00.923Z,16
2022-11-06T05:45:00.891Z,15
2022-11-06T05:46:00.890Z,16
2022-11-06T05:47:00.894Z,17
2022-11-06T05:48:00.918Z,15
2022-11-06T05:51:00.895Z,16
2022-11-06T05:55:01.022Z,17
2022-11-06T05:56:00.894Z,16
2022-11-06T05:58:01.084Z,18
2022-11-06T05:59:00.897Z,19
2022-11-06T06:00:00.895Z,18
2022-11-06T06:01:00.894Z,20
2022-11-06T06:02:01.040Z,19
2022-11-06T06:03:00.955Z,18
2022-11-06T06:04:00.894Z,19
2022-11-06T06:06:00.975Z,18
2022-11-06T06:08:01.018Z,19
2022-11-06T06:09:00.897Z,18
2022-11-06T06:10:00.899Z,17
2022-11-06T06:12:00.899Z,18
2022-11-06T06:13:00.927Z,17
2022-11-06T06:15:00.924Z,18
2022-11-06T06:16:00.897Z,17
2022-11-06T06:17:00.908Z,16
2022-11-06T06:18:00.934Z,15
2022-11-06T06:19:00.903Z,13
2022-11-06T06:21:00.897Z,14
2022-11-06T06:22:00.958Z,16
2022-11-06T06:23:01.302Z,18
2022-11-06T06:24:00.900Z,19
2022-11-06T06:28:00.900Z,17
2022-11-06T06:29:00.934Z,16
2022-11-06T06:30:00.918Z,16
2022-11-06T06:31:01.912Z,17
2022-11-06T06:36:00.966Z,16
2022-11-06T06:37:00.913Z,14
2022-11-06T06:39:00.956Z,16
2022-11-06T06:40:00.900Z,14
2022-11-06T06:42:00.904Z,15
2022-11-06T06:43:00.904Z,16
2022-11-06T06:44:00.942Z,15
2022-11-06T06:45:00.905Z,17
2022-11-06T06:46:00.905Z,16
2022-11-06T06:47:00.929Z,18
2022-11-06T06:48:00.913Z,19
2022-11-06T06:50:00.905Z,18
2022-11-06T06:51:00.920Z,19
2022-11-06T06:52:00.911Z,17
2022-11-06T06:53:00.914Z,16
2022-11-06T06:55:00.906Z,17
2022-11-06T06:56:00.915Z,18
2022-11-06T06:58:00.910Z,17
2022-11-06T06:59:00.928Z,16
2022-11-06T07:00:00.910Z,17
2022-11-06T07:03:01.082Z,16
2022-11-06T07:04:04.129Z,18
2022-11-06T07:05:00.909Z,16
2022-11-06T07:06:00.910Z,14
2022-11-06T07:08:00.910Z,15
2022-11-06T07:09:00.934Z,14
2022-11-06T07:10:00.907Z,15
2022-11-06T07:11:00.910Z,17
2022-11-06T07:12:00.909Z,16
2022-11-06T07:14:01.001Z,18
2022-11-06T07:15:00.908Z,18
2022-11-06T07:16:00.909Z,17
2022-11-06T07:17:00.907Z,18
2022-11-06T07:19:00.960Z,17
2022-11-06T07:22:00.911Z,18
2022-11-06T07:23:00.910Z,17
2022-11-06T07:25:00.910Z,16
2022-11-06T07:28:02.776Z,17
2022-11-06T07:29:00.948Z,16
2022-11-06T07:30:00.912Z,18
2022-11-06T07:31:00.908Z,19
2022-11-06T07:32:00.909Z,18
2022-11-06T07:33:00.911Z,19
2022-11-06T07:34:00.943Z,18
2022-11-06T07:35:01.040Z,17
2022-11-06T07:37:04.054Z,20
2022-11-06T07:38:00.912Z,21
2022-11-06T07:41:00.911Z,19
2022-11-06T07:42:00.912Z,17
2022-11-06T07:43:00.917Z,16
2022-11-06T07:45:00.913Z,16
2022-11-06T07:46:00.908Z,18
2022-11-06T07:47:00.916Z,19
2022-11-06T07:48:00.913Z,20
2022-11-06T07:50:02.009Z,21
2022-11-06T07:51:01.002Z,20
2022-11-06T07:52:00.915Z,19
2022-11-06T07:53:00.914Z,17
2022-11-06T07:56:00.914Z,18
2022-11-06T07:57:00.914Z,19
2022-11-06T07:59:00.951Z,18
2022-11-06T08:00:00.920Z,16
2022-11-06T08:01:01.103Z,18
2022-11-06T08:02:01.104Z,17
2022-11-06T08:03:01.072Z,18
2022-11-06T08:05:00.941Z,19
2022-11-06T08:06:00.991Z,17
2022-11-06T08:07:00.941Z,18
2022-11-06T08:10:00.932Z,17
2022-11-06T08:11:00.941Z,18
2022-11-06T08:12:01.034Z,17
2022-11-06T08:15:01.105Z,19
2022-11-06T08:16:01.002Z,18
2022-11-06T08:20:00.923Z,17
2022-11-06T08:21:00.926Z,19
2022-11-06T08:22:00.991Z,20
2022-11-06T08:23:00.946Z,18
2022-11-06T08:24:01.076Z,16
2022-11-06T08:25:00.922Z,15
2022-11-06T08:26:00.935Z,14
2022-11-06T08:27:00.921Z,13
2022-11-06T08:28:01.003Z,14
2022-11-06T08:30:00.931Z,15
2022-11-06T08:32:00.928Z,16
2022-11-06T08:34:01.134Z,18
2022-11-06T08:35:00.916Z,17
2022-11-06T08:36:00.949Z,16
2022-11-06T08:39:01.028Z,17
2022-11-06T08:40:01.018Z,19
2022-11-06T08:44:01.067Z,17
2022-11-06T08:45:00.947Z,18
2022-11-06T08:46:01.032Z,17
2022-11-06T08:48:01.016Z,18
2022-11-06T08:54:01.281Z,19
2022-11-06T08:55:01.037Z,17
2022-11-06T08:56:00.951Z,18
2022-11-06T08:59:01.035Z,16
2022-11-06T09:00:00.947Z,19
2022-11-06T09:01:01.005Z,18
2022-11-06T09:02:01.177Z,17
2022-11-06T09:04:01.099Z,18
2022-11-06T09:06:01.002Z,17
2022-11-06T09:08:00.938Z,16
2022-11-06T09:09:01.105Z,15
2022-11-06T09:10:00.937Z,13
2022-11-06T09:11:01.051Z,14
2022-11-06T09:13:01.180Z,15
2022-11-06T09:14:01.028Z,16
2022-11-06T09:15:01.027Z,15
2022-11-06T09:16:01.161Z,16
2022-11-06T09:17:01.055Z,15
2022-11-06T09:18:01.091Z,14
2022-11-06T09:19:01.026Z,15
2022-11-06T09:20:01.019Z,16
2022-11-06T09:21:00.934Z,15
2022-11-06T09:23:01.008Z,16
2022-11-06T09:24:01.385Z,14
2022-11-06T09:25:03.921Z,13
2022-11-06T09:26:01.047Z,16
2022-11-06T09:27:01.241Z,15
2022-11-06T09:29:01.037Z,17
2022-11-06T09:30:01.053Z,17
2022-11-06T09:32:01.120Z,20
2022-11-06T09:35:01.077Z,19
2022-11-06T09:37:00.931Z,18
2022-11-06T09:38:01.005Z,20
2022-11-06T09:40:05.941Z,19
2022-11-06T09:43:01.202Z,16
2022-11-06T09:44:05.776Z,17
2022-11-06T09:45:01.088Z,17
2022-11-06T09:46:01.039Z,16
2022-11-06T09:48:00.927Z,18
2022-11-06T09:50:01.112Z,17
2022-11-06T09:54:01.019Z,16
2022-11-06T09:55:01.574Z,17
2022-11-06T09:58:00.954Z,18
2022-11-06T09:59:00.980Z,17
2022-11-06T10:00:01.000Z,16
2022-11-06T10:01:01.015Z,15
2022-11-06T10:02:01.059Z,16
2022-11-06T10:03:01.019Z,15
2022-11-06T10:06:01.014Z,14
2022-11-06T10:08:00.949Z,13
2022-11-06T10:09:00.945Z,14
2022-11-06T10:10:00.953Z,15
2022-11-06T10:13:01.023Z,18
2022-11-06T10:15:01.108Z,19
2022-11-06T10:16:00.955Z,20
2022-11-06T10:17:00.964Z,22
2022-11-06T10:18:00.954Z,19
2022-11-06T10:19:01.006Z,20
2022-11-06T10:20:01.019Z,19
2022-11-06T10:21:01.017Z,18
2022-11-06T10:22:00.947Z,16
2022-11-06T10:23:00.961Z,17
2022-11-06T10:25:01.220Z,16
2022-11-06T10:27:01.022Z,17
2022-11-06T10:28:00.960Z,18
2022-11-06T10:30:00.943Z,19
2022-11-06T10:31:01.034Z,18
2022-11-06T10:32:00.957Z,19
2022-11-06T10:34:01.011Z,17
2022-11-06T10:36:01.016Z,18
2022-11-06T10:39:00.942Z,19
2022-11-06T10:42:00.943Z,18
2022-11-06T10:44:01.006Z,19
2022-11-06T10:45:00.940Z,20
2022-11-06T10:47:00.973Z,19
2022-11-06T10:48:00.944Z,20
2022-11-06T10:49:00.940Z,21
2022-11-06T10:50:00.938Z,19
2022-11-06T10:52:00.940Z,20
2022-11-06T10:53:00.942Z,17
2022-11-06T10:54:00.941Z,15
2022-11-06T10:55:00.941Z,16
2022-11-06T10:56:00.942Z,14
2022-11-06T10:57:00.942Z,15
2022-11-06T11:00:00.984Z,16
2022-11-06T11:01:01.064Z,17
2022-11-06T11:02:03.075Z,14
2022-11-06T11:03:00.978Z,15
2022-11-06T11:05:00.981Z,14
2022-11-06T11:06:00.942Z,22
2022-11-06T11:07:00.943Z,24
2022-11-06T11:08:00.946Z,26
2022-11-06T11:09:00.944Z,24
2022-11-06T11:10:00.988Z,25
2022-11-06T11:11:05.075Z,18
2022-11-06T11:12:00.945Z,17
2022-11-06T11:13:05.448Z,16
2022-11-06T11:14:00.955Z,18
2022-11-06T11:15:00.972Z,19
2022-11-06T11:16:00.947Z,18
2022-11-06T11:17:00.948Z,20
2022-11-06T11:18:00.951Z,21
2022-11-06T11:20:01.009Z,22
2022-11-06T11:22:00.947Z,20
2022-11-06T11:23:01.021Z,17
2022-11-06T11:24:00.949Z,16
2022-11-06T11:25:00.981Z,15
2022-11-06T11:27:00.953Z,16
2022-11-06T11:28:04.765Z,17
2022-11-06T11:29:01.030Z,18
2022-11-06T11:30:01.104Z,17
2022-11-06T11:31:00.951Z,16
2022-11-06T11:33:01.014Z,15
2022-11-06T11:34:00.950Z,14
2022-11-06T11:35:00.948Z,13
2022-11-06T11:36:00.971Z,15
2022-11-06T11:37:00.950Z,16
2022-11-06T11:38:00.952Z,19
2022-11-06T11:40:00.949Z,20
2022-11-06T11:41:00.951Z,19
2022-11-06T11:42:00.948Z,20
2022-11-06T11:43:00.949Z,19
2022-11-06T11:45:00.951Z,19
2022-11-06T11:46:00.949Z,18
2022-11-06T11:48:00.952Z,19
2022-11-06T11:50:00.951Z,21
2022-11-06T11:51:00.979Z,22
2022-11-06T11:52:00.975Z,20
2022-11-06T11:53:04.467Z,19
2022-11-06T11:55:00.952Z,18
2022-11-06T11:58:00.956Z,19
2022-11-06T11:59:00.953Z,17
2022-11-06T12:00:00.953Z,16
2022-11-06T12:01:00.978Z,15
2022-11-06T12:02:01.039Z,17
2022-11-06T12:03:01.048Z,16
2022-11-06T12:04:00.952Z,17
2022-11-06T12:05:00.959Z,16
2022-11-06T12:07:00.978Z,14
2022-11-06T12:10:01.010Z,16
2022-11-06T12:11:00.955Z,17
2022-11-06T12:13:01.054Z,19
2022-11-06T12:15:00.950Z,19
2022-11-06T12:16:00.950Z,18
2022-11-06T12:18:00.980Z,17
2022-11-06T12:20:00.953Z,16
2022-11-06T12:21:00.958Z,18
2022-11-06T12:22:00.977Z,17
2022-11-06T12:23:00.953Z,18
2022-11-06T12:25:00.951Z,19
2022-11-06T12:26:00.970Z,17
2022-11-06T12:28:00.984Z,16
2022-11-06T12:29:05.066Z,15
2022-11-06T12:30:00.955Z,15
2022-11-06T12:31:00.953Z,16
2022-11-06T12:32:00.985Z,17
2022-11-06T12:33:00.957Z,19
2022-11-06T12:34:10.923Z,20
2022-11-06T12:35:00.966Z,19
2022-11-06T12:36:00.956Z,20
2022-11-06T12:37:00.995Z,19
2022-11-06T12:39:00.954Z,17
2022-11-06T12:40:00.956Z,18
2022-11-06T12:43:01.044Z,16
2022-11-06T12:44:00.958Z,15
2022-11-06T12:45:00.956Z,12
2022-11-06T12:48:00.961Z,13
2022-11-06T12:49:00.959Z,16
2022-11-06T12:51:00.961Z,15
2022-11-06T12:52:01.000Z,17
2022-11-06T12:54:01.021Z,16
2022-11-06T12:55:00.959Z,17
2022-11-06T12:56:00.960Z,18
2022-11-06T12:57:01.003Z,19
2022-11-06T13:00:00.987Z,19
2022-11-06T13:01:00.969Z,18
2022-11-06T13:02:01.141Z,17
2022-11-06T13:04:01.089Z,19
2022-11-06T13:08:00.959Z,16
2022-11-06T13:09:00.955Z,14
2022-11-06T13:10:00.962Z,13
2022-11-06T13:11:00.962Z,12
2022-11-06T13:13:01.028Z,13
2022-11-06T13:14:00.962Z,15
2022-11-06T13:15:00.962Z,15
2022-11-06T13:16:00.994Z,17
2022-11-06T13:24:01.024Z,16
2022-11-06T13:25:00.969Z,15
2022-11-06T13:27:01.009Z,16
2022-11-06T13:28:00.965Z,17
2022-11-06T13:29:00.969Z,19
2022-11-06T13:30:00.965Z,17
2022-11-06T13:34:01.057Z,16
2022-11-06T13:36:00.970Z,15
2022-11-06T13:37:00.967Z,14
2022-11-06T13:38:00.993Z,13
2022-11-06T13:42:00.967Z,15
2022-11-06T13:44:01.035Z,16
2022-11-06T13:45:00.968Z,18
2022-11-06T13:46:00.967Z,19
2022-11-06T13:52:00.995Z,20
2022-11-06T13:53:00.998Z,18
2022-11-06T13:55:01.103Z,15
2022-11-06T13:56:01.211Z,14
2022-11-06T13:58:01.120Z,15
2022-11-06T13:59:00.973Z,14
2022-11-06T14:00:00.984Z,16
2022-11-06T14:02:01.287Z,15
2022-11-06T14:03:06.144Z,16
2022-11-06T14:04:01.116Z,17
2022-11-06T14:05:00.971Z,15
2022-11-06T14:07:00.969Z,18
2022-11-06T14:08:01.056Z,17
2022-11-06T14:09:00.970Z,16
2022-11-06T14:10:01.162Z,17
2022-11-06T14:11:00.971Z,16
2022-11-06T14:12:00.967Z,14
2022-11-06T14:15:01.032Z,14
2022-11-06T14:16:01.033Z,15
2022-11-06T14:17:00.967Z,16
2022-11-06T14:18:00.992Z,17
2022-11-06T14:20:01.092Z,18
2022-11-06T14:21:00.965Z,19
2022-11-06T14:23:01.071Z,20
2022-11-06T14:24:00.992Z,18
2022-11-06T14:25:02.170Z,17
2022-11-06T14:26:00.967Z,15
2022-11-06T14:27:00.967Z,14
2022-11-06T14:28:01.001Z,12
2022-11-06T14:29:00.969Z,14
2022-11-06T14:30:00.970Z,14
2022-11-06T14:31:19.836Z,13
2022-11-06T14:32:00.946Z,15
2022-11-06T14:33:01.117Z,14
2022-11-06T14:38:00.967Z,15
2022-11-06T14:39:00.993Z,14
2022-11-06T14:40:00.991Z,16
2022-11-06T14:41:00.965Z,17
2022-11-06T14:43:01.097Z,18
2022-11-06T14:44:00.998Z,17
2022-11-06T14:45:00.967Z,16
2022-11-06T14:46:00.966Z,14
2022-11-06T14:47:01.029Z,15
2022-11-06T14:48:00.966Z,14
2022-11-06T14:49:00.992Z,15
2022-11-06T14:50:01.030Z,14
2022-11-06T14:51:00.991Z,15
2022-11-06T14:52:01.027Z,12
2022-11-06T14:53:00.966Z,13
2022-11-06T14:54:01.005Z,14
2022-11-06T14:55:05.004Z,15
2022-11-06T14:56:01.061Z,14
2022-11-06T14:57:02.057Z,15
2022-11-06T14:59:01.161Z,14
2022-11-06T15:00:00.967Z,15
2022-11-06T15:01:01.112Z,16
2022-11-06T15:02:01.101Z,18
2022-11-06T15:03:00.967Z,17
2022-11-06T15:04:01.000Z,20
2022-11-06T15:05:00.968Z,19
2022-11-06T15:06:01.032Z,18
2022-11-06T15:07:00.968Z,16
2022-11-06T15:08:05.542Z,17
2022-11-06T15:09:00.990Z,15
2022-11-06T15:10:00.968Z,14
2022-11-06T15:11:00.968Z,15
2022-11-06T15:12:00.997Z,17
2022-11-06T15:13:01.045Z,14
2022-11-06T15:14:04.787Z,15
2022-11-06T15:15:00.968Z,17
2022-11-06T15:17:00.965Z,18
2022-11-06T15:18:01.033Z,19
2022-11-06T15:19:01.001Z,21
2022-11-06T15:20:02.059Z,22
2022-11-06T15:21:00.968Z,21
2022-11-06T15:23:01.129Z,20
2022-11-06T15:24:01.011Z,18
2022-11-06T15:25:01.069Z,16
2022-11-06T15:27:00.974Z,15
2022-11-06T15:30:01.100Z,16
2022-11-06T15:31:00.968Z,18
2022-11-06T15:33:00.969Z,19
2022-11-06T15:36:00.972Z,18
2022-11-06T15:38:00.971Z,15
2022-11-06T15:39:00.971Z,16
2022-11-06T15:40:01.810Z,15
2022-11-06T15:43:01.034Z,17
2022-11-06T15:44:00.971Z,18
2022-11-06T15:45:01.009Z,19
2022-11-06T15:46:05.872Z,18
2022-11-06T15:47:00.975Z,17
2022-11-06T15:49:00.976Z,15
2022-11-06T15:51:00.978Z,16
2022-11-06T15:53:01.108Z,17
2022-11-06T15:55:00.979Z,16
2022-11-06T15:56:00.980Z,15
2022-11-06T15:59:01.069Z,16
2022-11-06T16:00:01.038Z,17
2022-11-06T16:03:01.070Z,16
2022-11-06T16:04:00.985Z,17
2022-11-06T16:05:00.988Z,16
2022-11-06T16:06:01.017Z,15
2022-11-06T16:07:00.986Z,16
2022-11-06T16:08:00.986Z,17
2022-11-06T16:09:00.985Z,15
2022-11-06T16:10:00.987Z,16
2022-11-06T16:11:01.017Z,15
2022-11-06T16:13:01.059Z,16
2022-11-06T16:14:00.989Z,17
2022-11-06T16:15:00.990Z,18
2022-11-06T16:16:01.021Z,21
2022-11-06T16:17:00.990Z,20
2022-11-06T16:18:00.990Z,21
2022-11-06T16:19:01.013Z,20
2022-11-06T16:20:00.994Z,19
2022-11-06T16:21:01.024Z,17
2022-11-06T16:28:01.056Z,16
2022-11-06T16:30:01.000Z,16
2022-11-06T16:31:00.993Z,18
2022-11-06T16:35:01.083Z,15
2022-11-06T16:37:01.397Z,17
2022-11-06T16:38:19.038Z,15
2022-11-06T16:39:00.971Z,16
2022-11-06T16:41:00.992Z,15
2022-11-06T16:42:00.993Z,13
2022-11-06T16:45:01.055Z,14
2022-11-06T16:46:00.993Z,12
2022-11-06T16:47:00.991Z,13
2022-11-06T16:48:01.020Z,16
2022-11-06T16:51:01.019Z,18
2022-11-06T16:52:00.994Z,17
2022-11-06T16:53:01.020Z,15
2022-11-06T16:55:00.993Z,14
2022-11-06T16:56:00.994Z,17
2022-11-06T16:57:00.995Z,18
2022-11-06T16:58:01.019Z,17
2022-11-06T17:00:00.996Z,18
2022-11-06T17:01:01.033Z,15
2022-11-06T17:02:01.188Z,14
2022-11-06T17:03:01.105Z,15
2022-11-06T17:04:01.008Z,18
2022-11-06T17:06:00.994Z,19
2022-11-06T17:07:01.018Z,20
2022-11-06T17:08:01.043Z,21
2022-11-06T17:09:05.057Z,19
2022-11-06T17:10:01.008Z,18
2022-11-06T17:13:01.097Z,19
2022-11-06T17:14:00.997Z,18
2022-11-06T17:15:00.996Z,18
2022-11-06T17:16:00.996Z,19
2022-11-06T17:17:01.000Z,18
2022-11-06T17:20:01.023Z,19
2022-11-06T17:22:00.997Z,20
2022-11-06T17:23:01.021Z,19
2022-11-06T17:24:18.360Z,17
2022-11-06T17:26:00.978Z,15
2022-11-06T17:29:01.025Z,14
2022-11-06T17:30:01.000Z,15
2022-11-06T17:34:01.156Z,16
2022-11-06T17:35:01.002Z,15
2022-11-06T17:36:01.007Z,16
2022-11-06T17:37:01.002Z,17
2022-11-06T17:39:01.054Z,16
2022-11-06T17:44:01.102Z,17
2022-11-06T17:45:01.005Z,19
2022-11-06T17:46:01.006Z,18
2022-11-06T17:47:01.008Z,19
2022-11-06T17:49:01.035Z,18
2022-11-06T17:50:01.008Z,17
2022-11-06T17:52:01.209Z,16
2022-11-06T17:53:01.003Z,15
2022-11-06T17:54:01.122Z,16
2022-11-06T17:55:01.033Z,18
2022-11-06T17:56:01.006Z,17
2022-11-06T17:57:01.009Z,16
2022-11-06T17:58:01.018Z,17
2022-11-06T17:59:01.035Z,16
2022-11-06T18:00:01.011Z,13
2022-11-06T18:01:01.059Z,15
2022-11-06T18:02:01.174Z,14
2022-11-06T18:03:02.385Z,13
2022-11-06T18:04:01.045Z,14
2022-11-06T18:05:01.009Z,16
2022-11-06T18:06:01.016Z,17
2022-11-06T18:07:01.009Z,19
2022-11-06T18:08:01.009Z,18
2022-11-06T18:09:01.045Z,19
2022-11-06T18:10:01.010Z,18
2022-11-06T18:11:01.036Z,19
2022-11-06T18:12:01.007Z,18
2022-11-06T18:13:01.013Z,17
2022-11-06T18:15:01.012Z,17
2022-11-06T18:16:01.016Z,16
2022-11-06T18:17:01.011Z,17
2022-11-06T18:18:01.011Z,16
2022-11-06T18:20:01.016Z,17
2022-11-06T18:21:01.013Z,16
2022-11-06T18:22:05.456Z,17
2022-11-06T18:23:01.083Z,19
2022-11-06T18:24:01.031Z,20
2022-11-06T18:25:01.079Z,19
2022-11-06T18:26:01.013Z,17
2022-11-06T18:27:01.037Z,18
2022-11-06T18:28:03.752Z,16
2022-11-06T18:29:01.029Z,15
2022-11-06T18:30:01.028Z,17
2022-11-06T18:31:01.017Z,19
2022-11-06T18:32:01.086Z,15
2022-11-06T18:36:01.143Z,14
2022-11-06T18:37:01.039Z,16
2022-11-06T18:40:01.015Z,15
2022-11-06T18:41:01.098Z,18
2022-11-06T18:43:01.172Z,21
2022-11-06T18:44:01.015Z,22
2022-11-06T18:45:01.041Z,21
2022-11-06T18:46:01.016Z,18
2022-11-06T18:47:01.100Z,16
2022-11-06T18:48:01.088Z,18
2022-11-06T18:49:01.090Z,16
2022-11-06T18:51:01.019Z,18
2022-11-06T18:52:01.024Z,20
2022-11-06T18:53:01.020Z,16
2022-11-06T18:54:01.043Z,17
2022-11-06T18:57:01.021Z,16
2022-11-06T18:59:01.143Z,15
2022-11-06T19:00:01.144Z,14
2022-11-06T19:03:01.235Z,15
2022-11-06T19:07:01.024Z,16
2022-11-06T19:08:01.039Z,15
2022-11-06T19:10:01.082Z,19
2022-11-06T19:11:01.089Z,20
2022-11-06T19:12:01.038Z,19
2022-11-06T19:14:01.091Z,20
2022-11-06T19:15:01.056Z,18
2022-11-06T19:16:01.023Z,19
2022-11-06T19:20:01.032Z,21
2022-11-06T19:21:01.167Z,19
2022-11-06T19:22:01.091Z,20
2022-11-06T19:23:01.048Z,19
2022-11-06T19:24:03.796Z,18
2022-11-06T19:25:01.029Z,15
2022-11-06T19:42:01.178Z,21
2022-11-06T19:43:01.091Z,18
2022-11-06T19:45:01.100Z,20
2022-11-06T19:46:01.088Z,19
2022-11-06T19:47:01.087Z,18
2022-11-06T19:48:01.089Z,17
2022-11-06T19:49:01.087Z,16
2022-11-06T19:50:01.092Z,15
2022-11-06T19:52:40.991Z,14
2022-11-06T19:54:01.209Z,16
2022-11-06T19:55:25.299Z,17
2022-11-06T19:56:01.151Z,15
2022-11-06T19:59:01.160Z,14
2022-11-06T20:00:01.148Z,13
2022-11-06T20:01:01.261Z,14
2022-11-06T20:02:01.257Z,15
2022-11-06T20:03:01.159Z,17
2022-11-06T20:04:01.265Z,18
2022-11-06T20:05:01.090Z,17
2022-11-06T20:06:04.953Z,16
2022-11-06T20:07:01.311Z,15
2022-11-06T20:08:01.114Z,13
2022-11-06T20:10:05.919Z,15
2022-11-06T20:11:01.095Z,16
2022-11-06T20:12:01.090Z,18
2022-11-06T20:13:01.088Z,19
2022-11-06T20:15:01.187Z,20
2022-11-06T20:16:01.095Z,19
2022-11-06T20:17:01.084Z,17
2022-11-06T20:18:01.165Z,18
2022-11-06T20:19:01.089Z,19
2022-11-06T20:20:01.097Z,18
2022-11-06T20:22:01.081Z,17
2022-11-06T20:23:01.090Z,16
2022-11-06T20:24:01.090Z,17
2022-11-06T20:25:01.086Z,18
2022-11-06T20:26:01.086Z,19
2022-11-06T20:29:01.091Z,18
2022-11-06T20:30:01.093Z,16
2022-11-06T20:31:01.260Z,14
2022-11-06T20:32:01.081Z,15
2022-11-06T20:33:01.084Z,14
2022-11-06T20:34:01.088Z,15
2022-11-06T20:36:01.085Z,17
2022-11-06T20:38:01.161Z,18
2022-11-06T20:40:01.086Z,17
2022-11-06T20:42:01.081Z,16
2022-11-06T20:43:01.161Z,17
2022-11-06T20:45:01.089Z,17
2022-11-06T20:47:01.115Z,18
2022-11-06T20:48:01.086Z,17
2022-11-06T20:50:01.085Z,18
2022-11-06T20:51:01.085Z,17
2022-11-06T20:53:01.152Z,19
2022-11-06T20:55:01.085Z,20
2022-11-06T20:56:01.087Z,21
2022-11-06T20:57:01.088Z,20
2022-11-06T20:58:01.088Z,19
2022-11-06T20:59:01.085Z,18
2022-11-06T21:00:01.090Z,17
2022-11-06T21:01:01.086Z,18
2022-11-06T21:02:01.218Z,21
2022-11-06T21:03:02.043Z,20
2022-11-06T21:06:01.088Z,17
2022-11-06T21:07:01.087Z,16
2022-11-06T21:08:01.086Z,15
2022-11-06T21:09:01.086Z,16
2022-11-06T21:11:05.881Z,17
2022-11-06T21:13:01.086Z,16
2022-11-06T21:15:01.087Z,16
2022-11-06T21:16:01.087Z,17
2022-11-06T21:17:01.085Z,19